sensor_id;sensor_type;location;lat;lon;timestamp;P1;durP1;ratioP1;P2;durP2;ratioP2
5776;SDS011;2914;42.668;23.346;2022-12-29T00:01:16;63.27;;;33.73;;
5776;SDS011;2914;42.668;23.346;2022-12-29T00:03:46;48.53;;;26.20;;
5776;SDS011;2914;42.668;23.346;2022-12-29T00:06:23;62.23;;;30.97;;
5776;SDS011;2914;42.668;23.346;2022-12-29T00:08:53;54.77;;;31.00;;
5776;SDS011;2914;42.668;23.346;2022-12-29T00:11:23;69.17;;;32.80;;
5776;SDS011;2914;42.668;23.346;2022-12-29T00:14:01;49.43;;;30.23;;
5776;SDS011;2914;42.668;23.346;2022-12-29T00:16:47;58.17;;;30.57;;
5776;SDS011;2914;42.668;23.346;2022-12-29T00:19:16;68.40;;;32.87;;
5776;SDS011;2914;42.668;23.346;2022-12-29T00:22:03;64.27;;;30.80;;
5776;SDS011;2914;42.668;23.346;2022-12-29T00:24:50;63.37;;;29.07;;
5776;SDS011;2914;42.668;23.346;2022-12-29T00:27:37;70.80;;;31.73;;
5776;SDS011;2914;42.668;23.346;2022-12-29T00:30:24;61.47;;;29.13;;
5776;SDS011;2914;42.668;23.346;2022-12-29T00:36:08;60.13;;;28.50;;
5776;SDS011;2914;42.668;23.346;2022-12-29T00:38:40;52.63;;;30.30;;
5776;SDS011;2914;42.668;23.346;2022-12-29T00:41:18;54.60;;;29.43;;
5776;SDS011;2914;42.668;23.346;2022-12-29T00:44:05;54.03;;;28.03;;
5776;SDS011;2914;42.668;23.346;2022-12-29T00:47:05;53.33;;;28.50;;
5776;SDS011;2914;42.668;23.346;2022-12-29T00:49:33;57.27;;;28.20;;
5776;SDS011;2914;42.668;23.346;2022-12-29T00:52:04;50.03;;;25.67;;
5776;SDS011;2914;42.668;23.346;2022-12-29T00:54:34;49.20;;;25.43;;
5776;SDS011;2914;42.668;23.346;2022-12-29T00:57:05;45.17;;;25.07;;
5776;SDS011;2914;42.668;23.346;2022-12-29T00:59:35;46.37;;;24.23;;
5776;SDS011;2914;42.668;23.346;2022-12-29T01:02:05;36.73;;;21.43;;
5776;SDS011;2914;42.668;23.346;2022-12-29T01:04:35;40.57;;;23.47;;
5776;SDS011;2914;42.668;23.346;2022-12-29T01:07:04;36.37;;;20.43;;
5776;SDS011;2914;42.668;23.346;2022-12-29T01:09:33;41.10;;;22.60;;
5776;SDS011;2914;42.668;23.346;2022-12-29T01:12:11;34.37;;;20.77;;
5776;SDS011;2914;42.668;23.346;2022-12-29T01:14:40;42.17;;;21.83;;
5776;SDS011;2914;42.668;23.346;2022-12-29T01:17:10;36.87;;;21.20;;
5776;SDS011;2914;42.668;23.346;2022-12-29T01:19:39;38.07;;;20.83;;
5776;SDS011;2914;42.668;23.346;2022-12-29T01:22:08;36.30;;;19.60;;
5776;SDS011;2914;42.668;23.346;2022-12-29T01:24:37;34.70;;;20.83;;
5776;SDS011;2914;42.668;23.346;2022-12-29T01:27:06;35.07;;;20.93;;
5776;SDS011;2914;42.668;23.346;2022-12-29T01:29:36;42.40;;;21.73;;
5776;SDS011;2914;42.668;23.346;2022-12-29T01:32:05;32.93;;;20.30;;
5776;SDS011;2914;42.668;23.346;2022-12-29T01:34:34;31.50;;;19.80;;
5776;SDS011;2914;42.668;23.346;2022-12-29T01:37:03;37.70;;;20.10;;
5776;SDS011;2914;42.668;23.346;2022-12-29T01:39:32;34.80;;;20.20;;
5776;SDS011;2914;42.668;23.346;2022-12-29T01:42:01;34.93;;;19.03;;
5776;SDS011;2914;42.668;23.346;2022-12-29T01:44:47;38.80;;;20.63;;
5776;SDS011;2914;42.668;23.346;2022-12-29T01:47:33;36.87;;;20.33;;
5776;SDS011;2914;42.668;23.346;2022-12-29T01:50:07;32.73;;;19.67;;
5776;SDS011;2914;42.668;23.346;2022-12-29T01:52:40;30.40;;;18.57;;
5776;SDS011;2914;42.668;23.346;2022-12-29T01:55:11;31.57;;;19.93;;
5776;SDS011;2914;42.668;23.346;2022-12-29T01:57:41;35.50;;;19.27;;
5776;SDS011;2914;42.668;23.346;2022-12-29T02:00:13;28.33;;;17.40;;
5776;SDS011;2914;42.668;23.346;2022-12-29T02:02:57;27.03;;;16.40;;
5776;SDS011;2914;42.668;23.346;2022-12-29T02:05:28;24.13;;;15.77;;
5776;SDS011;2914;42.668;23.346;2022-12-29T02:08:47;28.40;;;17.20;;
5776;SDS011;2914;42.668;23.346;2022-12-29T02:11:19;34.57;;;18.23;;
5776;SDS011;2914;42.668;23.346;2022-12-29T02:13:49;28.20;;;17.67;;
5776;SDS011;2914;42.668;23.346;2022-12-29T02:16:39;24.87;;;16.60;;
5776;SDS011;2914;42.668;23.346;2022-12-29T02:22:38;24.33;;;16.53;;
5776;SDS011;2914;42.668;23.346;2022-12-29T02:25:14;21.70;;;15.00;;
5776;SDS011;2914;42.668;23.346;2022-12-29T02:28:04;28.33;;;16.63;;
5776;SDS011;2914;42.668;23.346;2022-12-29T02:30:53;24.77;;;15.27;;
5776;SDS011;2914;42.668;23.346;2022-12-29T02:33:32;26.73;;;16.47;;
5776;SDS011;2914;42.668;23.346;2022-12-29T02:36:07;26.97;;;16.50;;
5776;SDS011;2914;42.668;23.346;2022-12-29T02:38:48;25.17;;;15.80;;
5776;SDS011;2914;42.668;23.346;2022-12-29T02:41:22;30.87;;;16.47;;
5776;SDS011;2914;42.668;23.346;2022-12-29T02:43:55;34.00;;;17.50;;
5776;SDS011;2914;42.668;23.346;2022-12-29T02:46:27;31.93;;;16.20;;
5776;SDS011;2914;42.668;23.346;2022-12-29T02:49:01;28.13;;;16.80;;
5776;SDS011;2914;42.668;23.346;2022-12-29T02:51:34;31.77;;;17.90;;
5776;SDS011;2914;42.668;23.346;2022-12-29T02:54:06;31.77;;;17.50;;
5776;SDS011;2914;42.668;23.346;2022-12-29T02:56:54;34.10;;;18.33;;
5776;SDS011;2914;42.668;23.346;2022-12-29T02:59:23;28.40;;;17.60;;
5776;SDS011;2914;42.668;23.346;2022-12-29T03:01:59;38.83;;;18.10;;
5776;SDS011;2914;42.668;23.346;2022-12-29T03:04:39;39.10;;;18.37;;
5776;SDS011;2914;42.668;23.346;2022-12-29T03:07:12;30.70;;;17.23;;
5776;SDS011;2914;42.668;23.346;2022-12-29T03:09:46;28.83;;;17.73;;
5776;SDS011;2914;42.668;23.346;2022-12-29T03:12:19;31.03;;;17.57;;
5776;SDS011;2914;42.668;23.346;2022-12-29T03:14:57;30.70;;;17.43;;
5776;SDS011;2914;42.668;23.346;2022-12-29T03:17:48;36.27;;;19.53;;
5776;SDS011;2914;42.668;23.346;2022-12-29T03:20:20;38.47;;;18.30;;
5776;SDS011;2914;42.668;23.346;2022-12-29T03:22:53;31.93;;;18.53;;
5776;SDS011;2914;42.668;23.346;2022-12-29T03:25:28;32.97;;;18.53;;
5776;SDS011;2914;42.668;23.346;2022-12-29T03:27:58;35.90;;;20.03;;
5776;SDS011;2914;42.668;23.346;2022-12-29T03:30:29;37.60;;;21.30;;
5776;SDS011;2914;42.668;23.346;2022-12-29T03:33:01;33.87;;;19.20;;
5776;SDS011;2914;42.668;23.346;2022-12-29T03:35:34;35.67;;;18.97;;
5776;SDS011;2914;42.668;23.346;2022-12-29T03:38:05;31.97;;;17.60;;
5776;SDS011;2914;42.668;23.346;2022-12-29T03:40:37;33.40;;;19.00;;
5776;SDS011;2914;42.668;23.346;2022-12-29T03:43:09;32.50;;;17.90;;
5776;SDS011;2914;42.668;23.346;2022-12-29T03:45:39;34.60;;;18.50;;
5776;SDS011;2914;42.668;23.346;2022-12-29T03:48:08;41.43;;;19.50;;
5776;SDS011;2914;42.668;23.346;2022-12-29T03:50:37;37.33;;;20.10;;
5776;SDS011;2914;42.668;23.346;2022-12-29T03:53:06;40.40;;;19.10;;
5776;SDS011;2914;42.668;23.346;2022-12-29T03:55:35;41.90;;;17.47;;
5776;SDS011;2914;42.668;23.346;2022-12-29T03:58:04;27.90;;;16.87;;
5776;SDS011;2914;42.668;23.346;2022-12-29T04:00:32;38.03;;;19.07;;
5776;SDS011;2914;42.668;23.346;2022-12-29T04:03:01;33.90;;;18.40;;
5776;SDS011;2914;42.668;23.346;2022-12-29T04:05:30;34.97;;;18.20;;
5776;SDS011;2914;42.668;23.346;2022-12-29T04:07:59;26.40;;;16.80;;
5776;SDS011;2914;42.668;23.346;2022-12-29T04:10:28;33.57;;;17.77;;
5776;SDS011;2914;42.668;23.346;2022-12-29T04:12:57;38.70;;;19.37;;
5776;SDS011;2914;42.668;23.346;2022-12-29T04:15:26;42.50;;;17.50;;
5776;SDS011;2914;42.668;23.346;2022-12-29T04:17:56;37.17;;;18.07;;
5776;SDS011;2914;42.668;23.346;2022-12-29T04:20:25;38.30;;;20.00;;
5776;SDS011;2914;42.668;23.346;2022-12-29T04:23:11;33.23;;;18.30;;
5776;SDS011;2914;42.668;23.346;2022-12-29T04:25:40;38.57;;;18.93;;
5776;SDS011;2914;42.668;23.346;2022-12-29T04:30:47;31.10;;;17.40;;
5776;SDS011;2914;42.668;23.346;2022-12-29T04:33:16;32.10;;;16.07;;
5776;SDS011;2914;42.668;23.346;2022-12-29T04:35:45;29.70;;;18.00;;
5776;SDS011;2914;42.668;23.346;2022-12-29T04:38:14;29.70;;;17.00;;
5776;SDS011;2914;42.668;23.346;2022-12-29T04:40:44;32.10;;;17.47;;
5776;SDS011;2914;42.668;23.346;2022-12-29T04:43:13;34.00;;;18.20;;
5776;SDS011;2914;42.668;23.346;2022-12-29T04:45:43;30.10;;;16.13;;
5776;SDS011;2914;42.668;23.346;2022-12-29T04:48:13;30.77;;;17.03;;
5776;SDS011;2914;42.668;23.346;2022-12-29T04:50:42;32.50;;;19.07;;
5776;SDS011;2914;42.668;23.346;2022-12-29T04:53:13;29.90;;;16.77;;
5776;SDS011;2914;42.668;23.346;2022-12-29T04:55:51;33.13;;;17.10;;
5776;SDS011;2914;42.668;23.346;2022-12-29T04:58:20;34.77;;;18.33;;
5776;SDS011;2914;42.668;23.346;2022-12-29T05:00:50;37.30;;;19.10;;
5776;SDS011;2914;42.668;23.346;2022-12-29T05:03:19;32.70;;;18.23;;
5776;SDS011;2914;42.668;23.346;2022-12-29T05:05:48;30.20;;;16.83;;
5776;SDS011;2914;42.668;23.346;2022-12-29T05:08:18;34.87;;;17.03;;
5776;SDS011;2914;42.668;23.346;2022-12-29T05:10:49;31.17;;;16.37;;
5776;SDS011;2914;42.668;23.346;2022-12-29T05:13:18;30.50;;;17.70;;
5776;SDS011;2914;42.668;23.346;2022-12-29T05:15:49;29.43;;;17.73;;
5776;SDS011;2914;42.668;23.346;2022-12-29T05:18:19;33.83;;;18.27;;
5776;SDS011;2914;42.668;23.346;2022-12-29T05:20:48;30.40;;;17.03;;
5776;SDS011;2914;42.668;23.346;2022-12-29T05:23:17;31.67;;;18.53;;
5776;SDS011;2914;42.668;23.346;2022-12-29T05:25:46;36.37;;;18.57;;
5776;SDS011;2914;42.668;23.346;2022-12-29T05:28:15;30.00;;;17.17;;
5776;SDS011;2914;42.668;23.346;2022-12-29T05:30:46;38.37;;;18.83;;
5776;SDS011;2914;42.668;23.346;2022-12-29T05:33:17;38.70;;;19.03;;
5776;SDS011;2914;42.668;23.346;2022-12-29T05:35:46;39.40;;;19.37;;
5776;SDS011;2914;42.668;23.346;2022-12-29T05:38:15;38.47;;;19.30;;
5776;SDS011;2914;42.668;23.346;2022-12-29T05:40:53;32.37;;;18.60;;
5776;SDS011;2914;42.668;23.346;2022-12-29T05:43:22;37.77;;;20.30;;
5776;SDS011;2914;42.668;23.346;2022-12-29T05:45:51;36.10;;;19.50;;
5776;SDS011;2914;42.668;23.346;2022-12-29T05:48:21;38.30;;;21.33;;
5776;SDS011;2914;42.668;23.346;2022-12-29T05:50:50;29.67;;;17.60;;
5776;SDS011;2914;42.668;23.346;2022-12-29T05:53:19;30.40;;;18.63;;
5776;SDS011;2914;42.668;23.346;2022-12-29T05:55:49;35.17;;;20.00;;
5776;SDS011;2914;42.668;23.346;2022-12-29T05:58:18;39.53;;;19.73;;
5776;SDS011;2914;42.668;23.346;2022-12-29T06:00:46;42.73;;;20.93;;
5776;SDS011;2914;42.668;23.346;2022-12-29T06:03:15;39.67;;;22.83;;
5776;SDS011;2914;42.668;23.346;2022-12-29T06:05:45;35.83;;;20.23;;
5776;SDS011;2914;42.668;23.346;2022-12-29T06:08:14;43.70;;;18.77;;
5776;SDS011;2914;42.668;23.346;2022-12-29T06:10:43;41.87;;;20.43;;
5776;SDS011;2914;42.668;23.346;2022-12-29T06:13:14;36.03;;;19.00;;
5776;SDS011;2914;42.668;23.346;2022-12-29T06:15:44;40.37;;;20.27;;
5776;SDS011;2914;42.668;23.346;2022-12-29T06:18:15;51.33;;;21.47;;
5776;SDS011;2914;42.668;23.346;2022-12-29T06:20:44;35.87;;;21.70;;
5776;SDS011;2914;42.668;23.346;2022-12-29T06:23:14;35.20;;;19.97;;
5776;SDS011;2914;42.668;23.346;2022-12-29T06:25:44;38.50;;;19.83;;
5776;SDS011;2914;42.668;23.346;2022-12-29T06:28:15;39.80;;;21.50;;
5776;SDS011;2914;42.668;23.346;2022-12-29T06:30:44;43.77;;;21.20;;
5776;SDS011;2914;42.668;23.346;2022-12-29T06:33:14;41.00;;;19.90;;
5776;SDS011;2914;42.668;23.346;2022-12-29T06:35:47;48.23;;;21.73;;
5776;SDS011;2914;42.668;23.346;2022-12-29T06:38:16;48.30;;;20.43;;
5776;SDS011;2914;42.668;23.346;2022-12-29T06:40:44;37.20;;;20.80;;
5776;SDS011;2914;42.668;23.346;2022-12-29T06:43:13;39.27;;;21.70;;
5776;SDS011;2914;42.668;23.346;2022-12-29T06:45:43;35.57;;;20.57;;
5776;SDS011;2914;42.668;23.346;2022-12-29T06:48:21;46.03;;;24.13;;
5776;SDS011;2914;42.668;23.346;2022-12-29T06:50:51;28.70;;;16.23;;
5776;SDS011;2914;42.668;23.346;2022-12-29T06:53:20;47.23;;;26.47;;
5776;SDS011;2914;42.668;23.346;2022-12-29T06:55:51;47.90;;;25.63;;
5776;SDS011;2914;42.668;23.346;2022-12-29T06:58:22;50.30;;;25.43;;
5776;SDS011;2914;42.668;23.346;2022-12-29T07:00:52;45.10;;;24.13;;
5776;SDS011;2914;42.668;23.346;2022-12-29T07:03:29;43.20;;;23.10;;
5776;SDS011;2914;42.668;23.346;2022-12-29T07:05:58;38.20;;;22.90;;
5776;SDS011;2914;42.668;23.346;2022-12-29T07:08:28;50.60;;;23.30;;
5776;SDS011;2914;42.668;23.346;2022-12-29T07:10:57;41.60;;;26.43;;
5776;SDS011;2914;42.668;23.346;2022-12-29T07:13:26;42.43;;;24.70;;
5776;SDS011;2914;42.668;23.346;2022-12-29T07:15:55;43.60;;;23.50;;
5776;SDS011;2914;42.668;23.346;2022-12-29T07:18:24;42.10;;;23.83;;
5776;SDS011;2914;42.668;23.346;2022-12-29T07:20:54;43.83;;;23.10;;
5776;SDS011;2914;42.668;23.346;2022-12-29T07:23:23;50.53;;;23.67;;
5776;SDS011;2914;42.668;23.346;2022-12-29T07:26:03;45.07;;;24.77;;
5776;SDS011;2914;42.668;23.346;2022-12-29T07:28:34;50.20;;;24.20;;
5776;SDS011;2914;42.668;23.346;2022-12-29T07:31:04;48.70;;;24.67;;
5776;SDS011;2914;42.668;23.346;2022-12-29T07:33:35;41.57;;;23.10;;
5776;SDS011;2914;42.668;23.346;2022-12-29T07:36:05;41.07;;;22.67;;
5776;SDS011;2914;42.668;23.346;2022-12-29T07:38:35;48.40;;;22.70;;
5776;SDS011;2914;42.668;23.346;2022-12-29T07:41:04;48.60;;;23.83;;
5776;SDS011;2914;42.668;23.346;2022-12-29T07:43:39;39.43;;;24.23;;
5776;SDS011;2914;42.668;23.346;2022-12-29T07:46:08;40.73;;;24.17;;
5776;SDS011;2914;42.668;23.346;2022-12-29T07:48:37;41.53;;;23.00;;
5776;SDS011;2914;42.668;23.346;2022-12-29T07:51:06;44.00;;;23.70;;
5776;SDS011;2914;42.668;23.346;2022-12-29T07:53:35;39.20;;;23.10;;
5776;SDS011;2914;42.668;23.346;2022-12-29T07:56:27;39.20;;;22.30;;
5776;SDS011;2914;42.668;23.346;2022-12-29T07:59:03;48.77;;;24.27;;
5776;SDS011;2914;42.668;23.346;2022-12-29T08:01:32;41.70;;;22.30;;
5776;SDS011;2914;42.668;23.346;2022-12-29T08:04:01;34.90;;;22.60;;
5776;SDS011;2914;42.668;23.346;2022-12-29T08:06:30;46.00;;;22.87;;
5776;SDS011;2914;42.668;23.346;2022-12-29T08:08:59;32.70;;;20.43;;
5776;SDS011;2914;42.668;23.346;2022-12-29T08:11:28;36.90;;;21.67;;
5776;SDS011;2914;42.668;23.346;2022-12-29T08:13:57;38.40;;;22.40;;
5776;SDS011;2914;42.668;23.346;2022-12-29T08:16:26;39.23;;;21.73;;
5776;SDS011;2914;42.668;23.346;2022-12-29T08:18:55;40.57;;;23.00;;
5776;SDS011;2914;42.668;23.346;2022-12-29T08:21:25;49.13;;;24.27;;
5776;SDS011;2914;42.668;23.346;2022-12-29T08:23:55;43.83;;;23.47;;
5776;SDS011;2914;42.668;23.346;2022-12-29T08:26:25;42.40;;;24.50;;
5776;SDS011;2914;42.668;23.346;2022-12-29T08:28:54;45.13;;;22.67;;
5776;SDS011;2914;42.668;23.346;2022-12-29T08:31:24;39.90;;;23.60;;
5776;SDS011;2914;42.668;23.346;2022-12-29T08:33:53;52.40;;;24.60;;
5776;SDS011;2914;42.668;23.346;2022-12-29T08:36:22;41.73;;;23.43;;
5776;SDS011;2914;42.668;23.346;2022-12-29T08:38:51;38.27;;;23.97;;
5776;SDS011;2914;42.668;23.346;2022-12-29T08:41:20;40.93;;;22.53;;
5776;SDS011;2914;42.668;23.346;2022-12-29T08:46:32;38.80;;;22.70;;
5776;SDS011;2914;42.668;23.346;2022-12-29T08:49:01;39.90;;;23.30;;
5776;SDS011;2914;42.668;23.346;2022-12-29T08:51:44;36.77;;;23.20;;
5776;SDS011;2914;42.668;23.346;2022-12-29T08:54:14;43.47;;;23.27;;
5776;SDS011;2914;42.668;23.346;2022-12-29T08:56:43;39.53;;;23.70;;
5776;SDS011;2914;42.668;23.346;2022-12-29T08:59:20;39.60;;;22.97;;
5776;SDS011;2914;42.668;23.346;2022-12-29T09:01:49;36.27;;;22.10;;
5776;SDS011;2914;42.668;23.346;2022-12-29T09:04:27;41.23;;;22.00;;
5776;SDS011;2914;42.668;23.346;2022-12-29T09:06:56;36.50;;;22.20;;
5776;SDS011;2914;42.668;23.346;2022-12-29T09:09:25;36.53;;;21.47;;
5776;SDS011;2914;42.668;23.346;2022-12-29T09:11:54;44.20;;;24.00;;
5776;SDS011;2914;42.668;23.346;2022-12-29T09:14:23;47.43;;;24.10;;
5776;SDS011;2914;42.668;23.346;2022-12-29T09:16:53;50.00;;;22.60;;
5776;SDS011;2914;42.668;23.346;2022-12-29T09:19:40;41.43;;;22.63;;
5776;SDS011;2914;42.668;23.346;2022-12-29T09:22:09;37.07;;;22.40;;
5776;SDS011;2914;42.668;23.346;2022-12-29T09:24:38;36.77;;;22.43;;
5776;SDS011;2914;42.668;23.346;2022-12-29T09:27:07;40.00;;;21.80;;
5776;SDS011;2914;42.668;23.346;2022-12-29T09:29:36;45.30;;;24.70;;
5776;SDS011;2914;42.668;23.346;2022-12-29T09:32:05;39.03;;;23.10;;
5776;SDS011;2914;42.668;23.346;2022-12-29T09:34:34;44.07;;;25.90;;
5776;SDS011;2914;42.668;23.346;2022-12-29T09:37:03;41.87;;;23.67;;
5776;SDS011;2914;42.668;23.346;2022-12-29T09:39:32;39.97;;;22.20;;
5776;SDS011;2914;42.668;23.346;2022-12-29T09:42:03;47.07;;;23.80;;
5776;SDS011;2914;42.668;23.346;2022-12-29T09:44:44;42.70;;;23.30;;
5776;SDS011;2914;42.668;23.346;2022-12-29T09:47:20;39.00;;;22.43;;
5776;SDS011;2914;42.668;23.346;2022-12-29T09:49:52;40.10;;;23.40;;
5776;SDS011;2914;42.668;23.346;2022-12-29T09:52:25;44.37;;;24.20;;
5776;SDS011;2914;42.668;23.346;2022-12-29T09:54:56;35.43;;;22.87;;
5776;SDS011;2914;42.668;23.346;2022-12-29T09:57:54;40.00;;;24.10;;
5776;SDS011;2914;42.668;23.346;2022-12-29T10:00:28;41.80;;;22.43;;
5776;SDS011;2914;42.668;23.346;2022-12-29T10:03:02;34.77;;;21.67;;
5776;SDS011;2914;42.668;23.346;2022-12-29T10:05:35;36.93;;;22.97;;
5776;SDS011;2914;42.668;23.346;2022-12-29T10:10:48;46.83;;;22.03;;
5776;SDS011;2914;42.668;23.346;2022-12-29T10:13:23;36.17;;;22.67;;
5776;SDS011;2914;42.668;23.346;2022-12-29T10:16:04;41.17;;;22.27;;
5776;SDS011;2914;42.668;23.346;2022-12-29T10:19:04;41.83;;;23.63;;
5776;SDS011;2914;42.668;23.346;2022-12-29T10:21:44;40.83;;;22.13;;
5776;SDS011;2914;42.668;23.346;2022-12-29T10:24:25;39.30;;;23.17;;
5776;SDS011;2914;42.668;23.346;2022-12-29T10:26:56;42.70;;;23.73;;
5776;SDS011;2914;42.668;23.346;2022-12-29T10:29:28;36.47;;;22.80;;
5776;SDS011;2914;42.668;23.346;2022-12-29T10:32:09;37.97;;;22.73;;
5776;SDS011;2914;42.668;23.346;2022-12-29T10:34:57;34.10;;;22.17;;
5776;SDS011;2914;42.668;23.346;2022-12-29T10:40:12;41.00;;;23.17;;
5776;SDS011;2914;42.668;23.346;2022-12-29T10:42:53;41.50;;;24.07;;
5776;SDS011;2914;42.668;23.346;2022-12-29T10:45:25;43.10;;;22.90;;
5776;SDS011;2914;42.668;23.346;2022-12-29T10:48:05;35.47;;;22.07;;
5776;SDS011;2914;42.668;23.346;2022-12-29T10:50:43;36.07;;;22.00;;
5776;SDS011;2914;42.668;23.346;2022-12-29T10:53:15;35.73;;;22.73;;
5776;SDS011;2914;42.668;23.346;2022-12-29T10:55:58;37.30;;;22.20;;
5776;SDS011;2914;42.668;23.346;2022-12-29T10:58:28;40.60;;;23.80;;
5776;SDS011;2914;42.668;23.346;2022-12-29T11:01:07;43.50;;;24.27;;
5776;SDS011;2914;42.668;23.346;2022-12-29T11:03:45;38.73;;;23.67;;
5776;SDS011;2914;42.668;23.346;2022-12-29T11:06:28;41.10;;;24.43;;
5776;SDS011;2914;42.668;23.346;2022-12-29T11:09:09;36.63;;;21.10;;
5776;SDS011;2914;42.668;23.346;2022-12-29T11:14:27;40.80;;;21.03;;
5776;SDS011;2914;42.668;23.346;2022-12-29T11:16:58;45.30;;;21.47;;
5776;SDS011;2914;42.668;23.346;2022-12-29T11:19:42;38.30;;;23.03;;
5776;SDS011;2914;42.668;23.346;2022-12-29T11:22:18;39.47;;;23.90;;
5776;SDS011;2914;42.668;23.346;2022-12-29T11:25:04;41.67;;;22.90;;
5776;SDS011;2914;42.668;23.346;2022-12-29T11:27:33;44.33;;;25.70;;
5776;SDS011;2914;42.668;23.346;2022-12-29T11:30:04;46.80;;;25.37;;
5776;SDS011;2914;42.668;23.346;2022-12-29T11:32:40;42.40;;;23.87;;
5776;SDS011;2914;42.668;23.346;2022-12-29T11:35:32;42.20;;;25.03;;
5776;SDS011;2914;42.668;23.346;2022-12-29T11:38:02;43.03;;;24.67;;
5776;SDS011;2914;42.668;23.346;2022-12-29T11:40:32;38.80;;;22.47;;
5776;SDS011;2914;42.668;23.346;2022-12-29T11:43:24;40.90;;;23.10;;
5776;SDS011;2914;42.668;23.346;2022-12-29T11:48:32;39.80;;;23.23;;
5776;SDS011;2914;42.668;23.346;2022-12-29T11:51:04;39.60;;;23.43;;
5776;SDS011;2914;42.668;23.346;2022-12-29T11:53:42;53.47;;;23.70;;
5776;SDS011;2914;42.668;23.346;2022-12-29T11:56:15;43.53;;;23.20;;
5776;SDS011;2914;42.668;23.346;2022-12-29T11:58:48;47.80;;;23.60;;
5776;SDS011;2914;42.668;23.346;2022-12-29T12:01:28;46.87;;;22.90;;
5776;SDS011;2914;42.668;23.346;2022-12-29T12:04:00;39.97;;;22.40;;
5776;SDS011;2914;42.668;23.346;2022-12-29T12:06:31;45.80;;;22.90;;
5776;SDS011;2914;42.668;23.346;2022-12-29T12:09:04;38.67;;;22.17;;
5776;SDS011;2914;42.668;23.346;2022-12-29T12:14:12;44.47;;;23.33;;
5776;SDS011;2914;42.668;23.346;2022-12-29T12:16:46;40.63;;;22.97;;
5776;SDS011;2914;42.668;23.346;2022-12-29T12:19:17;37.80;;;23.77;;
5776;SDS011;2914;42.668;23.346;2022-12-29T12:24:30;51.03;;;23.93;;
5776;SDS011;2914;42.668;23.346;2022-12-29T12:27:11;39.53;;;22.83;;
5776;SDS011;2914;42.668;23.346;2022-12-29T12:29:40;38.13;;;24.60;;
5776;SDS011;2914;42.668;23.346;2022-12-29T12:32:19;35.67;;;21.23;;
5776;SDS011;2914;42.668;23.346;2022-12-29T12:34:50;34.07;;;20.13;;
5776;SDS011;2914;42.668;23.346;2022-12-29T12:37:23;38.63;;;21.60;;
5776;SDS011;2914;42.668;23.346;2022-12-29T12:40:18;34.67;;;19.70;;
5776;SDS011;2914;42.668;23.346;2022-12-29T12:45:45;39.13;;;19.37;;
5776;SDS011;2914;42.668;23.346;2022-12-29T12:48:28;34.40;;;20.27;;
5776;SDS011;2914;42.668;23.346;2022-12-29T12:51:07;34.03;;;19.63;;
5776;SDS011;2914;42.668;23.346;2022-12-29T12:53:46;33.77;;;19.43;;
5776;SDS011;2914;42.668;23.346;2022-12-29T12:56:29;38.50;;;19.83;;
5776;SDS011;2914;42.668;23.346;2022-12-29T12:59:04;36.83;;;21.77;;
5776;SDS011;2914;42.668;23.346;2022-12-29T13:01:45;40.83;;;21.63;;
5776;SDS011;2914;42.668;23.346;2022-12-29T13:04:22;46.67;;;22.23;;
5776;SDS011;2914;42.668;23.346;2022-12-29T13:07:20;39.23;;;21.40;;
5776;SDS011;2914;42.668;23.346;2022-12-29T13:09:55;43.40;;;22.47;;
5776;SDS011;2914;42.668;23.346;2022-12-29T13:12:34;38.27;;;22.23;;
5776;SDS011;2914;42.668;23.346;2022-12-29T13:15:36;32.40;;;18.83;;
5776;SDS011;2914;42.668;23.346;2022-12-29T13:18:12;34.63;;;20.50;;
5776;SDS011;2914;42.668;23.346;2022-12-29T13:20:52;39.30;;;21.10;;
5776;SDS011;2914;42.668;23.346;2022-12-29T13:23:24;30.80;;;19.60;;
5776;SDS011;2914;42.668;23.346;2022-12-29T13:25:58;39.00;;;22.63;;
5776;SDS011;2914;42.668;23.346;2022-12-29T13:28:40;36.47;;;21.67;;
5776;SDS011;2914;42.668;23.346;2022-12-29T13:33:49;42.80;;;22.53;;
5776;SDS011;2914;42.668;23.346;2022-12-29T13:36:21;40.63;;;23.40;;
5776;SDS011;2914;42.668;23.346;2022-12-29T13:38:55;53.80;;;23.90;;
5776;SDS011;2914;42.668;23.346;2022-12-29T13:41:29;49.90;;;25.40;;
5776;SDS011;2914;42.668;23.346;2022-12-29T13:46:37;37.33;;;22.80;;
5776;SDS011;2914;42.668;23.346;2022-12-29T13:49:10;48.53;;;24.60;;
5776;SDS011;2914;42.668;23.346;2022-12-29T13:51:55;39.07;;;23.87;;
5776;SDS011;2914;42.668;23.346;2022-12-29T13:54:29;50.20;;;24.23;;
5776;SDS011;2914;42.668;23.346;2022-12-29T13:57:03;58.03;;;25.97;;
5776;SDS011;2914;42.668;23.346;2022-12-29T13:59:38;42.73;;;24.40;;
5776;SDS011;2914;42.668;23.346;2022-12-29T14:02:17;42.60;;;23.50;;
5776;SDS011;2914;42.668;23.346;2022-12-29T14:04:59;45.93;;;24.73;;
5776;SDS011;2914;42.668;23.346;2022-12-29T14:07:35;42.40;;;25.37;;
5776;SDS011;2914;42.668;23.346;2022-12-29T14:10:05;49.33;;;25.30;;
5776;SDS011;2914;42.668;23.346;2022-12-29T14:12:42;51.40;;;25.47;;
5776;SDS011;2914;42.668;23.346;2022-12-29T14:15:19;42.33;;;23.57;;
5776;SDS011;2914;42.668;23.346;2022-12-29T14:18:02;48.57;;;25.37;;
5776;SDS011;2914;42.668;23.346;2022-12-29T14:20:32;46.77;;;24.47;;
5776;SDS011;2914;42.668;23.346;2022-12-29T14:23:16;43.20;;;25.37;;
5776;SDS011;2914;42.668;23.346;2022-12-29T14:25:59;46.20;;;24.20;;
5776;SDS011;2914;42.668;23.346;2022-12-29T14:28:29;57.57;;;25.63;;
5776;SDS011;2914;42.668;23.346;2022-12-29T14:31:00;42.97;;;23.47;;
5776;SDS011;2914;42.668;23.346;2022-12-29T14:33:30;42.90;;;25.10;;
5776;SDS011;2914;42.668;23.346;2022-12-29T14:36:20;50.17;;;25.17;;
5776;SDS011;2914;42.668;23.346;2022-12-29T14:38:51;47.53;;;21.80;;
5776;SDS011;2914;42.668;23.346;2022-12-29T14:41:28;52.37;;;21.10;;
5776;SDS011;2914;42.668;23.346;2022-12-29T14:44:09;37.50;;;21.27;;
5776;SDS011;2914;42.668;23.346;2022-12-29T14:46:46;39.40;;;20.90;;
5776;SDS011;2914;42.668;23.346;2022-12-29T14:49:19;33.20;;;19.63;;
5776;SDS011;2914;42.668;23.346;2022-12-29T14:51:51;42.77;;;21.00;;
5776;SDS011;2914;42.668;23.346;2022-12-29T14:57:36;48.90;;;20.97;;
5776;SDS011;2914;42.668;23.346;2022-12-29T15:00:13;33.53;;;19.93;;
5776;SDS011;2914;42.668;23.346;2022-12-29T15:02:46;32.27;;;19.83;;
5776;SDS011;2914;42.668;23.346;2022-12-29T15:05:24;32.20;;;19.10;;
5776;SDS011;2914;42.668;23.346;2022-12-29T15:07:57;34.00;;;20.47;;
5776;SDS011;2914;42.668;23.346;2022-12-29T15:10:31;42.53;;;22.37;;
5776;SDS011;2914;42.668;23.346;2022-12-29T15:13:03;35.77;;;20.23;;
5776;SDS011;2914;42.668;23.346;2022-12-29T15:15:37;38.73;;;20.63;;
5776;SDS011;2914;42.668;23.346;2022-12-29T15:18:22;30.87;;;18.07;;
5776;SDS011;2914;42.668;23.346;2022-12-29T15:21:01;37.10;;;22.07;;
5776;SDS011;2914;42.668;23.346;2022-12-29T15:23:32;39.07;;;21.97;;
5776;SDS011;2914;42.668;23.346;2022-12-29T15:26:03;44.87;;;22.10;;
5776;SDS011;2914;42.668;23.346;2022-12-29T15:28:42;37.13;;;21.73;;
5776;SDS011;2914;42.668;23.346;2022-12-29T15:31:14;46.13;;;22.40;;
5776;SDS011;2914;42.668;23.346;2022-12-29T15:33:45;52.67;;;24.87;;
5776;SDS011;2914;42.668;23.346;2022-12-29T15:36:19;34.73;;;21.90;;
5776;SDS011;2914;42.668;23.346;2022-12-29T15:38:49;41.77;;;24.27;;
5776;SDS011;2914;42.668;23.346;2022-12-29T15:41:29;47.87;;;25.87;;
5776;SDS011;2914;42.668;23.346;2022-12-29T15:44:06;45.50;;;26.03;;
5776;SDS011;2914;42.668;23.346;2022-12-29T15:46:38;55.67;;;24.80;;
5776;SDS011;2914;42.668;23.346;2022-12-29T15:49:07;56.30;;;24.83;;
5776;SDS011;2914;42.668;23.346;2022-12-29T15:51:45;44.27;;;23.27;;